This is the latest recevied weather packets stored in our database for station/object 9W2CEW-1. If no packets are shown the sender has not sent any weather packets the latest 10 day(s).
| Time | Temp. | Humidity | Pressure | Rain* | Wind** | Luminosity | Snow |
|---|---|---|---|---|---|---|---|
| 1787437397 | 34.44° C | 47% | 1004.9 hPa | - | - | - | - |
| 1787437329 | 35.56° C | 39% | 1003.5 hPa | - | - | - | - |
| 1787436497 | 34.44° C | 47% | 1004.7 hPa | - | - | - | - |
| 1787435605 | 35.56° C | 44% | 1004.6 hPa | - | - | - | - |
| 1787434696 | 35° C | 44% | 1004.3 hPa | - | - | - | - |
| 1787434142 | 35.56° C | 39% | 1003.4 hPa | - | - | - | - |
| 1787433796 | 34.44° C | 46% | 1004.3 hPa | - | - | - | - |
| 1787432952 | 33.33° C | 47% | 1004.1 hPa | - | - | - | - |
| 1787432896 | 33.33° C | 47% | 1004.1 hPa | - | - | - | - |
| 1787431996 | 33.33° C | 47% | 1004.1 hPa | - | - | - | - |
| 1787431096 | 33.33° C | 47% | 1004 hPa | - | - | - | - |
| 1787430954 | 36.11° C | 38% | 1003.5 hPa | - | - | - | - |
| 1787430196 | 34.44° C | 46% | 1003.9 hPa | - | - | - | - |
| 1787429298 | 36.67° C | 42% | 1004 hPa | - | - | - | - |
| 1787428398 | 36.11° C | 42% | 1004 hPa | - | - | - | - |
| 1787427699 | 36.11° C | 37% | 1003.2 hPa | - | - | - | - |
| 1787427497 | 35.56° C | 44% | 1004 hPa | - | - | - | - |
| 1787426597 | 35° C | 45% | 1003.9 hPa | - | - | - | - |
| 1787425700 | 36.67° C | 42% | 1004.2 hPa | - | - | - | - |
| 1787425626 | 36.11° C | 38% | 1003.1 hPa | - | - | - | - |
| 1787424797 | 37.22° C | 41% | 1004.2 hPa | - | - | - | - |
| 1787424024 | 36.67° C | 37% | 1002.6 hPa | - | - | - | - |
| 1787423897 | 36.11° C | 43% | 1004.5 hPa | - | - | - | - |
| 1787422997 | 35.56° C | 43% | 1004.8 hPa | - | - | - | - |
| 1787422097 | 35° C | 45% | 1004.9 hPa | - | - | - | - |
* Rain since midnight (hover to see other rain measurements)
** Current wind speed in m/s (hover to see current wind gust speed)